sensor_id;sensor_type;location;lat;lon;timestamp;temperature;humidity
40255;DHT22;25973;52.368;4.940;2022-09-21T00:00:38;13.40;99.90
40255;DHT22;25973;52.368;4.940;2022-09-21T00:03:04;13.40;99.90
40255;DHT22;25973;52.368;4.940;2022-09-21T00:05:30;13.40;99.90
40255;DHT22;25973;52.368;4.940;2022-09-21T00:07:59;13.40;99.90
40255;DHT22;25973;52.368;4.940;2022-09-21T00:10:25;13.30;99.90
40255;DHT22;25973;52.368;4.940;2022-09-21T00:12:51;13.30;99.90
40255;DHT22;25973;52.368;4.940;2022-09-21T00:15:17;13.30;99.90
40255;DHT22;25973;52.368;4.940;2022-09-21T00:17:44;13.30;99.90
40255;DHT22;25973;52.368;4.940;2022-09-21T00:20:10;13.30;99.90
40255;DHT22;25973;52.368;4.940;2022-09-21T00:22:36;13.20;99.90
40255;DHT22;25973;52.368;4.940;2022-09-21T00:25:02;13.30;99.90
40255;DHT22;25973;52.368;4.940;2022-09-21T00:27:29;13.30;99.90
40255;DHT22;25973;52.368;4.940;2022-09-21T00:29:56;13.20;99.90
40255;DHT22;25973;52.368;4.940;2022-09-21T00:32:22;13.20;99.90
40255;DHT22;25973;52.368;4.940;2022-09-21T00:34:50;13.20;99.90
40255;DHT22;25973;52.368;4.940;2022-09-21T00:37:17;13.20;99.90
40255;DHT22;25973;52.368;4.940;2022-09-21T00:39:42;13.20;99.90
40255;DHT22;25973;52.368;4.940;2022-09-21T00:42:23;13.20;99.90
40255;DHT22;25973;52.368;4.940;2022-09-21T00:44:49;13.20;99.90
40255;DHT22;25973;52.368;4.940;2022-09-21T00:47:18;13.10;99.90
40255;DHT22;25973;52.368;4.940;2022-09-21T00:49:47;13.10;99.90
40255;DHT22;25973;52.368;4.940;2022-09-21T00:52:17;13.10;99.90
40255;DHT22;25973;52.368;4.940;2022-09-21T00:54:45;13.10;99.90
40255;DHT22;25973;52.368;4.940;2022-09-21T00:57:14;13.00;99.90
40255;DHT22;25973;52.368;4.940;2022-09-21T00:59:42;13.00;99.90
40255;DHT22;25973;52.368;4.940;2022-09-21T01:02:09;13.00;99.90
40255;DHT22;25973;52.368;4.940;2022-09-21T01:04:34;13.00;99.90
40255;DHT22;25973;52.368;4.940;2022-09-21T01:07:05;13.00;99.90
40255;DHT22;25973;52.368;4.940;2022-09-21T01:09:33;13.00;99.90
40255;DHT22;25973;52.368;4.940;2022-09-21T01:17:35;12.90;99.90
40255;DHT22;25973;52.368;4.940;2022-09-21T01:31:20;12.80;99.90
40255;DHT22;25973;52.368;4.940;2022-09-21T01:33:51;12.80;99.90
40255;DHT22;25973;52.368;4.940;2022-09-21T01:36:22;12.70;99.90
40255;DHT22;25973;52.368;4.940;2022-09-21T01:38:55;12.70;99.90
40255;DHT22;25973;52.368;4.940;2022-09-21T01:41:25;12.70;99.90
40255;DHT22;25973;52.368;4.940;2022-09-21T01:43:54;12.70;99.90
40255;DHT22;25973;52.368;4.940;2022-09-21T01:46:26;12.70;99.90
40255;DHT22;25973;52.368;4.940;2022-09-21T01:48:55;12.70;99.90
40255;DHT22;25973;52.368;4.940;2022-09-21T01:51:25;12.70;99.90
40255;DHT22;25973;52.368;4.940;2022-09-21T01:54:06;12.70;99.90
40255;DHT22;25973;52.368;4.940;2022-09-21T01:56:42;12.80;99.90
40255;DHT22;25973;52.368;4.940;2022-09-21T01:59:50;12.70;99.90
40255;DHT22;25973;52.368;4.940;2022-09-21T02:04:51;12.80;99.90
40255;DHT22;25973;52.368;4.940;2022-09-21T02:07:17;12.80;99.90
40255;DHT22;25973;52.368;4.940;2022-09-21T02:09:43;12.80;99.90
40255;DHT22;25973;52.368;4.940;2022-09-21T02:12:11;12.80;99.90
40255;DHT22;25973;52.368;4.940;2022-09-21T02:14:38;12.80;99.90
40255;DHT22;25973;52.368;4.940;2022-09-21T02:17:31;12.80;99.90
40255;DHT22;25973;52.368;4.940;2022-09-21T02:20:18;12.90;99.90
40255;DHT22;25973;52.368;4.940;2022-09-21T02:25:40;12.90;99.90
40255;DHT22;25973;52.368;4.940;2022-09-21T02:34:16;13.00;99.90
40255;DHT22;25973;52.368;4.940;2022-09-21T02:36:44;13.00;99.90
40255;DHT22;25973;52.368;4.940;2022-09-21T02:39:16;13.00;99.90
40255;DHT22;25973;52.368;4.940;2022-09-21T02:44:28;13.00;99.90
40255;DHT22;25973;52.368;4.940;2022-09-21T02:47:07;13.00;99.90
40255;DHT22;25973;52.368;4.940;2022-09-21T02:49:38;13.00;99.90
40255;DHT22;25973;52.368;4.940;2022-09-21T02:52:09;13.00;99.90
40255;DHT22;25973;52.368;4.940;2022-09-21T02:54:38;13.00;99.90
40255;DHT22;25973;52.368;4.940;2022-09-21T02:57:06;13.00;99.90
40255;DHT22;25973;52.368;4.940;2022-09-21T02:59:32;13.00;99.90
40255;DHT22;25973;52.368;4.940;2022-09-21T03:01:57;13.00;99.90
40255;DHT22;25973;52.368;4.940;2022-09-21T03:04:23;13.00;99.90
40255;DHT22;25973;52.368;4.940;2022-09-21T03:06:50;13.00;99.90
40255;DHT22;25973;52.368;4.940;2022-09-21T03:09:16;13.00;99.90
40255;DHT22;25973;52.368;4.940;2022-09-21T03:11:41;13.00;99.90
40255;DHT22;25973;52.368;4.940;2022-09-21T03:14:07;13.00;99.90
40255;DHT22;25973;52.368;4.940;2022-09-21T03:16:34;13.00;99.90
40255;DHT22;25973;52.368;4.940;2022-09-21T03:19:00;13.00;99.90
40255;DHT22;25973;52.368;4.940;2022-09-21T03:21:26;13.00;99.90
40255;DHT22;25973;52.368;4.940;2022-09-21T03:23:51;13.00;99.90
40255;DHT22;25973;52.368;4.940;2022-09-21T03:26:17;13.00;99.90
40255;DHT22;25973;52.368;4.940;2022-09-21T03:28:49;13.00;99.90
40255;DHT22;25973;52.368;4.940;2022-09-21T03:31:15;12.90;99.90
40255;DHT22;25973;52.368;4.940;2022-09-21T03:33:41;12.90;99.90
40255;DHT22;25973;52.368;4.940;2022-09-21T03:36:07;12.90;99.90
40255;DHT22;25973;52.368;4.940;2022-09-21T03:38:33;12.90;99.90
40255;DHT22;25973;52.368;4.940;2022-09-21T03:41:00;12.90;99.90
40255;DHT22;25973;52.368;4.940;2022-09-21T03:43:25;12.90;99.90
40255;DHT22;25973;52.368;4.940;2022-09-21T03:45:51;12.80;99.90
40255;DHT22;25973;52.368;4.940;2022-09-21T03:48:17;12.80;99.90
40255;DHT22;25973;52.368;4.940;2022-09-21T03:50:43;12.80;99.90
40255;DHT22;25973;52.368;4.940;2022-09-21T03:53:09;12.80;99.90
40255;DHT22;25973;52.368;4.940;2022-09-21T03:55:35;12.80;99.90
40255;DHT22;25973;52.368;4.940;2022-09-21T03:58:01;12.70;99.90
40255;DHT22;25973;52.368;4.940;2022-09-21T04:00:27;12.80;99.90
40255;DHT22;25973;52.368;4.940;2022-09-21T04:02:53;12.70;99.90
40255;DHT22;25973;52.368;4.940;2022-09-21T04:05:19;12.60;99.90
40255;DHT22;25973;52.368;4.940;2022-09-21T04:07:45;12.70;99.90
40255;DHT22;25973;52.368;4.940;2022-09-21T04:10:16;12.70;99.90
40255;DHT22;25973;52.368;4.940;2022-09-21T04:12:42;12.60;99.90
40255;DHT22;25973;52.368;4.940;2022-09-21T04:15:10;12.60;99.90
40255;DHT22;25973;52.368;4.940;2022-09-21T04:17:36;12.60;99.90
40255;DHT22;25973;52.368;4.940;2022-09-21T04:20:03;12.50;99.90
40255;DHT22;25973;52.368;4.940;2022-09-21T04:22:29;12.50;99.90
40255;DHT22;25973;52.368;4.940;2022-09-21T04:24:55;12.50;99.90
40255;DHT22;25973;52.368;4.940;2022-09-21T04:27:21;12.50;99.90
40255;DHT22;25973;52.368;4.940;2022-09-21T04:29:47;12.50;99.90
40255;DHT22;25973;52.368;4.940;2022-09-21T04:32:13;12.40;99.90
40255;DHT22;25973;52.368;4.940;2022-09-21T04:34:38;12.40;99.90
40255;DHT22;25973;52.368;4.940;2022-09-21T04:37:05;12.40;99.90
40255;DHT22;25973;52.368;4.940;2022-09-21T04:39:33;12.40;99.90
40255;DHT22;25973;52.368;4.940;2022-09-21T04:41:59;12.40;99.90
40255;DHT22;25973;52.368;4.940;2022-09-21T04:44:25;12.30;99.90
40255;DHT22;25973;52.368;4.940;2022-09-21T04:46:50;12.30;99.90
40255;DHT22;25973;52.368;4.940;2022-09-21T04:49:16;12.30;99.90
40255;DHT22;25973;52.368;4.940;2022-09-21T04:51:41;12.30;99.90
40255;DHT22;25973;52.368;4.940;2022-09-21T04:54:07;12.30;99.90
40255;DHT22;25973;52.368;4.940;2022-09-21T04:56:33;12.30;99.90
40255;DHT22;25973;52.368;4.940;2022-09-21T04:58:58;12.30;99.90
40255;DHT22;25973;52.368;4.940;2022-09-21T05:01:24;12.30;99.90
40255;DHT22;25973;52.368;4.940;2022-09-21T05:03:49;12.30;99.90
40255;DHT22;25973;52.368;4.940;2022-09-21T05:06:15;12.30;99.90
40255;DHT22;25973;52.368;4.940;2022-09-21T05:08:41;12.30;99.90
40255;DHT22;25973;52.368;4.940;2022-09-21T05:11:25;12.30;99.90
40255;DHT22;25973;52.368;4.940;2022-09-21T05:13:51;12.30;99.90
40255;DHT22;25973;52.368;4.940;2022-09-21T05:16:17;12.30;99.90
40255;DHT22;25973;52.368;4.940;2022-09-21T05:18:44;12.40;99.90
40255;DHT22;25973;52.368;4.940;2022-09-21T05:21:13;12.40;99.90
40255;DHT22;25973;52.368;4.940;2022-09-21T05:23:39;12.40;99.90
40255;DHT22;25973;52.368;4.940;2022-09-21T05:26:05;12.40;99.90
40255;DHT22;25973;52.368;4.940;2022-09-21T05:28:31;12.40;99.90
40255;DHT22;25973;52.368;4.940;2022-09-21T05:33:28;12.50;99.90
40255;DHT22;25973;52.368;4.940;2022-09-21T05:38:26;12.50;99.90
40255;DHT22;25973;52.368;4.940;2022-09-21T05:40:52;12.60;99.90
40255;DHT22;25973;52.368;4.940;2022-09-21T05:43:18;12.60;99.90
40255;DHT22;25973;52.368;4.940;2022-09-21T05:45:49;12.60;99.90
40255;DHT22;25973;52.368;4.940;2022-09-21T05:48:23;12.60;99.90
40255;DHT22;25973;52.368;4.940;2022-09-21T05:53:59;12.70;99.90
40255;DHT22;25973;52.368;4.940;2022-09-21T05:56:36;12.70;99.90
40255;DHT22;25973;52.368;4.940;2022-09-21T06:04:29;12.90;99.90
40255;DHT22;25973;52.368;4.940;2022-09-21T06:06:55;12.90;99.90
40255;DHT22;25973;52.368;4.940;2022-09-21T06:09:20;13.00;99.90
40255;DHT22;25973;52.368;4.940;2022-09-21T06:11:46;13.10;99.90
40255;DHT22;25973;52.368;4.940;2022-09-21T06:14:12;13.10;99.90
40255;DHT22;25973;52.368;4.940;2022-09-21T06:16:39;13.20;99.90
40255;DHT22;25973;52.368;4.940;2022-09-21T06:19:05;13.30;99.90
40255;DHT22;25973;52.368;4.940;2022-09-21T06:21:30;13.40;99.90
40255;DHT22;25973;52.368;4.940;2022-09-21T06:23:56;13.50;99.90
40255;DHT22;25973;52.368;4.940;2022-09-21T06:26:22;13.50;99.90
40255;DHT22;25973;52.368;4.940;2022-09-21T06:28:47;13.60;99.90
40255;DHT22;25973;52.368;4.940;2022-09-21T06:31:13;13.70;99.90
40255;DHT22;25973;52.368;4.940;2022-09-21T06:33:38;13.70;99.90
40255;DHT22;25973;52.368;4.940;2022-09-21T06:36:04;13.70;99.90
40255;DHT22;25973;52.368;4.940;2022-09-21T06:38:29;13.70;99.90
40255;DHT22;25973;52.368;4.940;2022-09-21T06:41:00;13.80;99.90
40255;DHT22;25973;52.368;4.940;2022-09-21T06:43:27;13.80;99.90
40255;DHT22;25973;52.368;4.940;2022-09-21T06:45:57;13.80;99.90
40255;DHT22;25973;52.368;4.940;2022-09-21T06:48:24;13.90;99.90
40255;DHT22;25973;52.368;4.940;2022-09-21T06:50:50;13.90;99.90
40255;DHT22;25973;52.368;4.940;2022-09-21T06:53:16;13.80;99.90
40255;DHT22;25973;52.368;4.940;2022-09-21T06:55:42;13.80;99.90
40255;DHT22;25973;52.368;4.940;2022-09-21T06:58:08;13.80;99.90
40255;DHT22;25973;52.368;4.940;2022-09-21T07:00:34;13.80;99.90
40255;DHT22;25973;52.368;4.940;2022-09-21T07:02:59;13.90;99.90
40255;DHT22;25973;52.368;4.940;2022-09-21T07:05:25;14.00;99.90
40255;DHT22;25973;52.368;4.940;2022-09-21T07:07:56;14.10;99.90
40255;DHT22;25973;52.368;4.940;2022-09-21T07:10:22;14.30;99.90
40255;DHT22;25973;52.368;4.940;2022-09-21T07:12:48;14.60;99.90
40255;DHT22;25973;52.368;4.940;2022-09-21T07:15:16;15.00;99.90
40255;DHT22;25973;52.368;4.940;2022-09-21T07:17:41;15.40;99.90
40255;DHT22;25973;52.368;4.940;2022-09-21T07:20:09;15.70;99.90
40255;DHT22;25973;52.368;4.940;2022-09-21T07:22:35;16.00;99.90
40255;DHT22;25973;52.368;4.940;2022-09-21T07:25:02;16.30;99.90
40255;DHT22;25973;52.368;4.940;2022-09-21T07:27:30;16.60;99.90
40255;DHT22;25973;52.368;4.940;2022-09-21T07:29:56;16.90;99.90
40255;DHT22;25973;52.368;4.940;2022-09-21T07:32:22;17.10;99.90
40255;DHT22;25973;52.368;4.940;2022-09-21T07:34:47;17.40;99.90
40255;DHT22;25973;52.368;4.940;2022-09-21T07:37:13;17.60;99.90
40255;DHT22;25973;52.368;4.940;2022-09-21T07:39:39;17.90;99.90
40255;DHT22;25973;52.368;4.940;2022-09-21T07:42:05;18.30;99.90
40255;DHT22;25973;52.368;4.940;2022-09-21T07:44:31;18.70;99.90
40255;DHT22;25973;52.368;4.940;2022-09-21T07:46:57;19.00;99.90
40255;DHT22;25973;52.368;4.940;2022-09-21T07:49:23;19.30;99.90
40255;DHT22;25973;52.368;4.940;2022-09-21T07:51:48;19.60;99.90
40255;DHT22;25973;52.368;4.940;2022-09-21T07:54:14;19.90;99.90
40255;DHT22;25973;52.368;4.940;2022-09-21T07:56:40;20.20;99.90
40255;DHT22;25973;52.368;4.940;2022-09-21T07:59:07;20.40;99.90
40255;DHT22;25973;52.368;4.940;2022-09-21T08:01:40;20.60;99.90
40255;DHT22;25973;52.368;4.940;2022-09-21T08:04:08;20.90;99.90
40255;DHT22;25973;52.368;4.940;2022-09-21T08:06:35;21.10;99.90
40255;DHT22;25973;52.368;4.940;2022-09-21T08:09:04;21.30;99.90
40255;DHT22;25973;52.368;4.940;2022-09-21T08:11:31;21.50;99.90
40255;DHT22;25973;52.368;4.940;2022-09-21T08:14:02;21.70;99.50
40255;DHT22;25973;52.368;4.940;2022-09-21T08:16:29;22.00;99.10
40255;DHT22;25973;52.368;4.940;2022-09-21T08:18:54;22.20;98.60
40255;DHT22;25973;52.368;4.940;2022-09-21T08:21:20;22.30;98.10
40255;DHT22;25973;52.368;4.940;2022-09-21T08:23:47;22.40;97.90
40255;DHT22;25973;52.368;4.940;2022-09-21T08:26:15;22.50;96.40
40255;DHT22;25973;52.368;4.940;2022-09-21T08:28:48;22.50;96.50
40255;DHT22;25973;52.368;4.940;2022-09-21T08:31:15;22.50;96.40
40255;DHT22;25973;52.368;4.940;2022-09-21T08:33:41;22.60;95.70
40255;DHT22;25973;52.368;4.940;2022-09-21T08:36:07;22.70;95.60
40255;DHT22;25973;52.368;4.940;2022-09-21T08:38:35;22.70;95.60
40255;DHT22;25973;52.368;4.940;2022-09-21T08:41:09;22.80;95.40
40255;DHT22;25973;52.368;4.940;2022-09-21T08:43:43;22.70;95.40
40255;DHT22;25973;52.368;4.940;2022-09-21T08:46:15;22.80;95.40
40255;DHT22;25973;52.368;4.940;2022-09-21T08:49:00;22.90;95.50
40255;DHT22;25973;52.368;4.940;2022-09-21T08:51:32;23.00;94.90
40255;DHT22;25973;52.368;4.940;2022-09-21T08:54:15;23.00;95.10
40255;DHT22;25973;52.368;4.940;2022-09-21T08:56:41;23.10;94.90
40255;DHT22;25973;52.368;4.940;2022-09-21T08:59:14;23.10;94.50
40255;DHT22;25973;52.368;4.940;2022-09-21T09:04:31;23.10;94.40
40255;DHT22;25973;52.368;4.940;2022-09-21T09:07:26;23.30;94.00
40255;DHT22;25973;52.368;4.940;2022-09-21T09:10:16;23.40;94.40
40255;DHT22;25973;52.368;4.940;2022-09-21T09:12:47;23.50;93.40
40255;DHT22;25973;52.368;4.940;2022-09-21T09:18:14;23.90;92.80
40255;DHT22;25973;52.368;4.940;2022-09-21T09:20:46;24.10;92.00
40255;DHT22;25973;52.368;4.940;2022-09-21T09:23:21;24.20;92.30
40255;DHT22;25973;52.368;4.940;2022-09-21T09:25:49;24.40;92.20
40255;DHT22;25973;52.368;4.940;2022-09-21T09:28:20;24.90;91.90
40255;DHT22;25973;52.368;4.940;2022-09-21T09:30:56;25.40;91.20
40255;DHT22;25973;52.368;4.940;2022-09-21T09:33:27;25.90;90.40
40255;DHT22;25973;52.368;4.940;2022-09-21T09:36:01;26.60;90.00
40255;DHT22;25973;52.368;4.940;2022-09-21T09:38:49;27.10;87.90
40255;DHT22;25973;52.368;4.940;2022-09-21T09:51:30;31.80;79.40
40255;DHT22;25973;52.368;4.940;2022-09-21T09:53:58;32.70;77.70
40255;DHT22;25973;52.368;4.940;2022-09-21T09:56:25;33.40;75.50
40255;DHT22;25973;52.368;4.940;2022-09-21T09:58:56;33.70;73.60
40255;DHT22;25973;52.368;4.940;2022-09-21T10:01:42;33.70;73.00
40255;DHT22;25973;52.368;4.940;2022-09-21T10:04:10;34.30;72.80
40255;DHT22;25973;52.368;4.940;2022-09-21T10:06:37;35.10;70.60
40255;DHT22;25973;52.368;4.940;2022-09-21T10:09:27;35.40;69.70
40255;DHT22;25973;52.368;4.940;2022-09-21T10:12:15;34.30;69.20
40255;DHT22;25973;52.368;4.940;2022-09-21T10:14:51;33.20;69.80
40255;DHT22;25973;52.368;4.940;2022-09-21T10:17:17;33.10;70.20
40255;DHT22;25973;52.368;4.940;2022-09-21T10:19:43;32.90;70.70
40255;DHT22;25973;52.368;4.940;2022-09-21T10:22:15;33.10;71.00
40255;DHT22;25973;52.368;4.940;2022-09-21T10:24:47;33.70;69.20
40255;DHT22;25973;52.368;4.940;2022-09-21T10:27:15;33.70;69.60
40255;DHT22;25973;52.368;4.940;2022-09-21T10:29:46;33.50;69.20
40255;DHT22;25973;52.368;4.940;2022-09-21T10:34:38;31.00;70.90
40255;DHT22;25973;52.368;4.940;2022-09-21T10:37:32;28.50;73.40
40255;DHT22;25973;52.368;4.940;2022-09-21T10:39:59;25.90;77.30
40255;DHT22;25973;52.368;4.940;2022-09-21T10:42:25;25.10;80.50
40255;DHT22;25973;52.368;4.940;2022-09-21T10:47:45;25.80;79.70
40255;DHT22;25973;52.368;4.940;2022-09-21T10:52:59;24.30;81.90
40255;DHT22;25973;52.368;4.940;2022-09-21T10:55:27;23.60;83.80
40255;DHT22;25973;52.368;4.940;2022-09-21T10:57:54;23.40;84.30
40255;DHT22;25973;52.368;4.940;2022-09-21T11:02:48;24.70;84.60
40255;DHT22;25973;52.368;4.940;2022-09-21T11:08:08;26.30;80.20
40255;DHT22;25973;52.368;4.940;2022-09-21T11:13:51;26.30;81.00
40255;DHT22;25973;52.368;4.940;2022-09-21T11:16:37;26.40;81.50
40255;DHT22;25973;52.368;4.940;2022-09-21T11:20:09;25.80;80.90
40255;DHT22;25973;52.368;4.940;2022-09-21T11:22:29;24.90;81.90
40255;DHT22;25973;52.368;4.940;2022-09-21T11:25:30;23.90;84.00
40255;DHT22;25973;52.368;4.940;2022-09-21T11:28:21;23.00;86.00
40255;DHT22;25973;52.368;4.940;2022-09-21T11:39:05;21.80;89.40
40255;DHT22;25973;52.368;4.940;2022-09-21T11:41:58;21.30;89.80
40255;DHT22;25973;52.368;4.940;2022-09-21T11:44:32;20.40;91.00
40255;DHT22;25973;52.368;4.940;2022-09-21T11:47:19;19.70;93.50
40255;DHT22;25973;52.368;4.940;2022-09-21T11:50:14;19.10;94.10
40255;DHT22;25973;52.368;4.940;2022-09-21T12:14:55;18.00;96.70
40255;DHT22;25973;52.368;4.940;2022-09-21T12:17:37;18.10;96.70
40255;DHT22;25973;52.368;4.940;2022-09-21T12:23:11;17.90;96.50
40255;DHT22;25973;52.368;4.940;2022-09-21T12:25:42;17.90;96.10
40255;DHT22;25973;52.368;4.940;2022-09-21T12:28:12;17.90;96.40
40255;DHT22;25973;52.368;4.940;2022-09-21T12:30:43;17.90;96.20
40255;DHT22;25973;52.368;4.940;2022-09-21T12:33:24;17.90;95.40
40255;DHT22;25973;52.368;4.940;2022-09-21T12:36:06;17.90;94.70
40255;DHT22;25973;52.368;4.940;2022-09-21T12:38:39;18.00;94.90
40255;DHT22;25973;52.368;4.940;2022-09-21T12:41:34;18.00;94.00
40255;DHT22;25973;52.368;4.940;2022-09-21T12:44:31;18.00;94.10
40255;DHT22;25973;52.368;4.940;2022-09-21T12:50:20;17.80;92.20
40255;DHT22;25973;52.368;4.940;2022-09-21T12:52:48;17.70;92.80
40255;DHT22;25973;52.368;4.940;2022-09-21T12:57:57;17.70;93.30
40255;DHT22;25973;52.368;4.940;2022-09-21T13:00:35;17.70;93.30
40255;DHT22;25973;52.368;4.940;2022-09-21T13:03:25;17.70;92.90
40255;DHT22;25973;52.368;4.940;2022-09-21T13:08:34;17.70;91.70
40255;DHT22;25973;52.368;4.940;2022-09-21T13:11:04;17.70;91.20
40255;DHT22;25973;52.368;4.940;2022-09-21T13:16:01;17.70;92.80
40255;DHT22;25973;52.368;4.940;2022-09-21T13:18:34;17.60;92.70
40255;DHT22;25973;52.368;4.940;2022-09-21T13:21:23;17.60;92.00
40255;DHT22;25973;52.368;4.940;2022-09-21T13:23:57;17.70;91.70
40255;DHT22;25973;52.368;4.940;2022-09-21T13:26:34;17.70;91.80
40255;DHT22;25973;52.368;4.940;2022-09-21T13:32:21;17.70;91.90
40255;DHT22;25973;52.368;4.940;2022-09-21T13:34:46;17.70;92.00
40255;DHT22;25973;52.368;4.940;2022-09-21T13:47:44;17.90;92.00
40255;DHT22;25973;52.368;4.940;2022-09-21T13:52:46;17.90;91.20
40255;DHT22;25973;52.368;4.940;2022-09-21T13:55:29;17.90;91.50
40255;DHT22;25973;52.368;4.940;2022-09-21T13:58:02;17.90;91.40
40255;DHT22;25973;52.368;4.940;2022-09-21T14:05:58;17.90;90.90
40255;DHT22;25973;52.368;4.940;2022-09-21T14:08:36;17.90;91.40
40255;DHT22;25973;52.368;4.940;2022-09-21T14:11:29;17.90;91.80
40255;DHT22;25973;52.368;4.940;2022-09-21T14:18:59;17.80;91.30
40255;DHT22;25973;52.368;4.940;2022-09-21T14:21:24;17.80;91.60
40255;DHT22;25973;52.368;4.940;2022-09-21T14:26:33;17.90;91.80
40255;DHT22;25973;52.368;4.940;2022-09-21T14:29:06;17.80;91.30
40255;DHT22;25973;52.368;4.940;2022-09-21T14:31:36;17.90;91.60
40255;DHT22;25973;52.368;4.940;2022-09-21T14:34:03;17.90;91.90
40255;DHT22;25973;52.368;4.940;2022-09-21T14:36:46;17.90;92.40
40255;DHT22;25973;52.368;4.940;2022-09-21T14:39:30;17.90;92.30
40255;DHT22;25973;52.368;4.940;2022-09-21T14:42:02;17.90;91.90
40255;DHT22;25973;52.368;4.940;2022-09-21T14:44:33;17.90;92.50
40255;DHT22;25973;52.368;4.940;2022-09-21T14:58:17;18.10;92.80
40255;DHT22;25973;52.368;4.940;2022-09-21T15:00:46;18.00;92.50
40255;DHT22;25973;52.368;4.940;2022-09-21T15:05:49;18.00;92.80
40255;DHT22;25973;52.368;4.940;2022-09-21T15:11:25;17.90;93.10
40255;DHT22;25973;52.368;4.940;2022-09-21T15:14:21;17.90;93.00
40255;DHT22;25973;52.368;4.940;2022-09-21T15:16:51;17.90;92.60
40255;DHT22;25973;52.368;4.940;2022-09-21T15:21:47;17.80;92.20
40255;DHT22;25973;52.368;4.940;2022-09-21T15:26:48;17.60;92.70
40255;DHT22;25973;52.368;4.940;2022-09-21T15:29:24;17.60;92.70
40255;DHT22;25973;52.368;4.940;2022-09-21T15:31:51;17.50;92.40
40255;DHT22;25973;52.368;4.940;2022-09-21T15:34:17;17.50;93.10
40255;DHT22;25973;52.368;4.940;2022-09-21T15:36:43;17.50;93.20
40255;DHT22;25973;52.368;4.940;2022-09-21T15:39:29;17.40;93.60
40255;DHT22;25973;52.368;4.940;2022-09-21T15:42:18;17.40;93.70
40255;DHT22;25973;52.368;4.940;2022-09-21T15:44:47;17.40;94.10
40255;DHT22;25973;52.368;4.940;2022-09-21T15:47:19;17.40;94.20
40255;DHT22;25973;52.368;4.940;2022-09-21T15:49:45;17.50;94.50
40255;DHT22;25973;52.368;4.940;2022-09-21T15:52:36;17.40;94.10
40255;DHT22;25973;52.368;4.940;2022-09-21T15:55:13;17.40;94.10
40255;DHT22;25973;52.368;4.940;2022-09-21T15:57:42;17.30;94.10
40255;DHT22;25973;52.368;4.940;2022-09-21T16:02:41;17.20;94.60
40255;DHT22;25973;52.368;4.940;2022-09-21T16:05:15;17.20;94.40
40255;DHT22;25973;52.368;4.940;2022-09-21T16:07:40;17.20;94.20
40255;DHT22;25973;52.368;4.940;2022-09-21T16:10:37;17.20;93.70
40255;DHT22;25973;52.368;4.940;2022-09-21T16:13:20;17.20;93.80
40255;DHT22;25973;52.368;4.940;2022-09-21T16:16:07;17.10;94.20
40255;DHT22;25973;52.368;4.940;2022-09-21T16:18:46;17.10;94.60
40255;DHT22;25973;52.368;4.940;2022-09-21T16:21:33;17.00;95.10
40255;DHT22;25973;52.368;4.940;2022-09-21T16:24:28;17.00;95.50
40255;DHT22;25973;52.368;4.940;2022-09-21T16:26:57;17.00;95.70
40255;DHT22;25973;52.368;4.940;2022-09-21T16:29:38;17.00;95.80
40255;DHT22;25973;52.368;4.940;2022-09-21T16:34:52;17.00;96.30
40255;DHT22;25973;52.368;4.940;2022-09-21T16:39:45;16.90;97.00
40255;DHT22;25973;52.368;4.940;2022-09-21T16:42:11;16.90;97.60
40255;DHT22;25973;52.368;4.940;2022-09-21T16:44:37;16.80;98.10
40255;DHT22;25973;52.368;4.940;2022-09-21T16:47:19;16.80;98.50
40255;DHT22;25973;52.368;4.940;2022-09-21T16:49:50;16.80;98.80
40255;DHT22;25973;52.368;4.940;2022-09-21T16:52:22;16.80;99.10
40255;DHT22;25973;52.368;4.940;2022-09-21T16:54:49;16.80;99.20
40255;DHT22;25973;52.368;4.940;2022-09-21T16:57:15;16.80;99.40
40255;DHT22;25973;52.368;4.940;2022-09-21T16:59:41;16.90;99.50
40255;DHT22;25973;52.368;4.940;2022-09-21T17:02:10;16.80;99.50
40255;DHT22;25973;52.368;4.940;2022-09-21T17:04:38;16.80;99.60
40255;DHT22;25973;52.368;4.940;2022-09-21T17:07:04;16.90;99.80
40255;DHT22;25973;52.368;4.940;2022-09-21T17:09:38;16.90;99.90
40255;DHT22;25973;52.368;4.940;2022-09-21T17:12:09;16.90;99.90
40255;DHT22;25973;52.368;4.940;2022-09-21T17:14:36;16.90;99.90
40255;DHT22;25973;52.368;4.940;2022-09-21T17:17:06;16.80;99.90
40255;DHT22;25973;52.368;4.940;2022-09-21T17:19:33;16.80;99.90
40255;DHT22;25973;52.368;4.940;2022-09-21T17:22:01;16.80;99.90
40255;DHT22;25973;52.368;4.940;2022-09-21T17:24:27;16.80;99.90
40255;DHT22;25973;52.368;4.940;2022-09-21T17:26:52;16.80;99.90
40255;DHT22;25973;52.368;4.940;2022-09-21T17:29:22;16.70;99.90
40255;DHT22;25973;52.368;4.940;2022-09-21T17:31:55;16.70;99.90
40255;DHT22;25973;52.368;4.940;2022-09-21T17:34:26;16.70;99.90
40255;DHT22;25973;52.368;4.940;2022-09-21T17:36:52;16.70;99.90
40255;DHT22;25973;52.368;4.940;2022-09-21T17:39:19;16.60;99.90
40255;DHT22;25973;52.368;4.940;2022-09-21T17:41:50;16.70;99.90
40255;DHT22;25973;52.368;4.940;2022-09-21T17:46:59;16.60;99.90
40255;DHT22;25973;52.368;4.940;2022-09-21T17:49:29;16.60;99.90
40255;DHT22;25973;52.368;4.940;2022-09-21T17:51:55;16.50;99.90
40255;DHT22;25973;52.368;4.940;2022-09-21T17:54:39;16.50;99.90
40255;DHT22;25973;52.368;4.940;2022-09-21T18:00:08;16.40;99.90
40255;DHT22;25973;52.368;4.940;2022-09-21T18:02:36;16.40;99.90
40255;DHT22;25973;52.368;4.940;2022-09-21T18:05:13;16.30;99.90
40255;DHT22;25973;52.368;4.940;2022-09-21T18:07:40;16.30;99.90
40255;DHT22;25973;52.368;4.940;2022-09-21T18:10:07;16.20;99.90
40255;DHT22;25973;52.368;4.940;2022-09-21T18:18:17;16.10;99.90
40255;DHT22;25973;52.368;4.940;2022-09-21T18:21:03;16.00;99.90
40255;DHT22;25973;52.368;4.940;2022-09-21T18:26:06;16.00;99.90
40255;DHT22;25973;52.368;4.940;2022-09-21T18:28:45;15.90;99.90
40255;DHT22;25973;52.368;4.940;2022-09-21T18:39:29;15.80;99.90
40255;DHT22;25973;52.368;4.940;2022-09-21T18:44:51;15.70;99.90
40255;DHT22;25973;52.368;4.940;2022-09-21T18:47:45;15.70;99.90
40255;DHT22;25973;52.368;4.940;2022-09-21T18:50:40;15.70;99.90
40255;DHT22;25973;52.368;4.940;2022-09-21T18:53:45;15.70;99.90
40255;DHT22;25973;52.368;4.940;2022-09-21T18:56:12;15.60;99.90
40255;DHT22;25973;52.368;4.940;2022-09-21T18:58:38;15.60;99.90
40255;DHT22;25973;52.368;4.940;2022-09-21T19:01:10;15.50;99.90
40255;DHT22;25973;52.368;4.940;2022-09-21T19:03:37;15.50;99.90
40255;DHT22;25973;52.368;4.940;2022-09-21T19:14:06;15.40;99.90
40255;DHT22;25973;52.368;4.940;2022-09-21T19:17:00;15.40;99.90
40255;DHT22;25973;52.368;4.940;2022-09-21T19:19:43;15.40;99.90
40255;DHT22;25973;52.368;4.940;2022-09-21T19:25:03;15.30;99.90
40255;DHT22;25973;52.368;4.940;2022-09-21T19:27:42;15.30;99.90
40255;DHT22;25973;52.368;4.940;2022-09-21T19:30:15;15.20;99.90